sensor_id;sensor_type;location;lat;lon;timestamp;P1;durP1;ratioP1;P2;durP2;ratioP2
23282;SDS011;11810;51.178;3.878;2022-11-20T00:01:25;100.18;;;42.03;;
23282;SDS011;11810;51.178;3.878;2022-11-20T00:05:04;113.32;;;45.30;;
23282;SDS011;11810;51.178;3.878;2022-11-20T00:07:30;116.68;;;47.60;;
23282;SDS011;11810;51.178;3.878;2022-11-20T00:09:56;112.82;;;47.03;;
23282;SDS011;11810;51.178;3.878;2022-11-20T00:12:22;113.25;;;43.65;;
23282;SDS011;11810;51.178;3.878;2022-11-20T00:14:48;103.72;;;42.25;;
23282;SDS011;11810;51.178;3.878;2022-11-20T00:17:14;114.07;;;45.28;;
23282;SDS011;11810;51.178;3.878;2022-11-20T00:19:40;106.43;;;41.10;;
23282;SDS011;11810;51.178;3.878;2022-11-20T00:22:05;106.88;;;42.17;;
23282;SDS011;11810;51.178;3.878;2022-11-20T00:24:31;103.50;;;41.70;;
23282;SDS011;11810;51.178;3.878;2022-11-20T00:26:57;99.53;;;39.67;;
23282;SDS011;11810;51.178;3.878;2022-11-20T00:31:12;108.78;;;41.28;;
23282;SDS011;11810;51.178;3.878;2022-11-20T00:33:40;105.45;;;40.92;;
23282;SDS011;11810;51.178;3.878;2022-11-20T00:36:11;99.13;;;40.60;;
23282;SDS011;11810;51.178;3.878;2022-11-20T00:38:39;105.55;;;42.50;;
23282;SDS011;11810;51.178;3.878;2022-11-20T00:41:06;101.50;;;43.22;;
23282;SDS011;11810;51.178;3.878;2022-11-20T00:43:34;105.15;;;44.78;;
23282;SDS011;11810;51.178;3.878;2022-11-20T00:48:10;111.90;;;44.95;;
23282;SDS011;11810;51.178;3.878;2022-11-20T00:50:36;102.00;;;44.55;;
23282;SDS011;11810;51.178;3.878;2022-11-20T00:53:02;121.22;;;45.20;;
23282;SDS011;11810;51.178;3.878;2022-11-20T00:55:28;114.43;;;45.92;;
23282;SDS011;11810;51.178;3.878;2022-11-20T00:57:53;112.00;;;43.78;;
23282;SDS011;11810;51.178;3.878;2022-11-20T01:00:19;105.75;;;42.70;;
23282;SDS011;11810;51.178;3.878;2022-11-20T01:02:45;120.97;;;44.15;;
23282;SDS011;11810;51.178;3.878;2022-11-20T01:06:15;106.95;;;41.42;;
23282;SDS011;11810;51.178;3.878;2022-11-20T01:08:47;101.78;;;41.92;;
23282;SDS011;11810;51.178;3.878;2022-11-20T01:11:17;110.45;;;43.85;;
23282;SDS011;11810;51.178;3.878;2022-11-20T01:13:45;114.15;;;44.38;;
23282;SDS011;11810;51.178;3.878;2022-11-20T01:16:16;111.18;;;43.75;;
23282;SDS011;11810;51.178;3.878;2022-11-20T01:18:51;108.80;;;42.67;;
23282;SDS011;11810;51.178;3.878;2022-11-20T01:21:19;114.68;;;44.22;;
23282;SDS011;11810;51.178;3.878;2022-11-20T01:24:17;110.35;;;42.00;;
23282;SDS011;11810;51.178;3.878;2022-11-20T01:26:46;106.93;;;42.35;;
23282;SDS011;11810;51.178;3.878;2022-11-20T01:29:15;105.90;;;42.20;;
23282;SDS011;11810;51.178;3.878;2022-11-20T01:31:43;116.47;;;44.40;;
23282;SDS011;11810;51.178;3.878;2022-11-20T01:34:10;109.63;;;43.42;;
23282;SDS011;11810;51.178;3.878;2022-11-20T01:36:41;104.78;;;41.35;;
23282;SDS011;11810;51.178;3.878;2022-11-20T01:39:11;104.00;;;41.95;;
23282;SDS011;11810;51.178;3.878;2022-11-20T01:41:38;105.05;;;43.05;;
23282;SDS011;11810;51.178;3.878;2022-11-20T01:44:46;104.28;;;41.13;;
23282;SDS011;11810;51.178;3.878;2022-11-20T01:47:38;119.82;;;42.10;;
23282;SDS011;11810;51.178;3.878;2022-11-20T01:50:14;102.88;;;41.80;;
23282;SDS011;11810;51.178;3.878;2022-11-20T01:53:05;96.28;;;40.55;;
23282;SDS011;11810;51.178;3.878;2022-11-20T01:55:36;103.82;;;42.30;;
23282;SDS011;11810;51.178;3.878;2022-11-20T01:58:10;104.07;;;41.95;;
23282;SDS011;11810;51.178;3.878;2022-11-20T02:02:21;105.50;;;42.45;;
23282;SDS011;11810;51.178;3.878;2022-11-20T02:04:48;117.45;;;45.15;;
23282;SDS011;11810;51.178;3.878;2022-11-20T02:07:18;114.68;;;44.28;;
23282;SDS011;11810;51.178;3.878;2022-11-20T02:09:45;112.50;;;44.83;;
23282;SDS011;11810;51.178;3.878;2022-11-20T02:12:10;118.00;;;45.47;;
23282;SDS011;11810;51.178;3.878;2022-11-20T02:14:56;120.57;;;47.05;;
23282;SDS011;11810;51.178;3.878;2022-11-20T02:17:23;125.78;;;46.80;;
23282;SDS011;11810;51.178;3.878;2022-11-20T02:24:26;133.40;;;45.45;;
23282;SDS011;11810;51.178;3.878;2022-11-20T02:29:25;123.72;;;47.13;;
23282;SDS011;11810;51.178;3.878;2022-11-20T02:31:56;134.18;;;48.80;;
23282;SDS011;11810;51.178;3.878;2022-11-20T02:34:23;133.10;;;48.78;;
23282;SDS011;11810;51.178;3.878;2022-11-20T02:36:49;143.90;;;53.55;;
23282;SDS011;11810;51.178;3.878;2022-11-20T02:39:17;135.32;;;51.35;;
23282;SDS011;11810;51.178;3.878;2022-11-20T02:42:26;142.38;;;50.05;;
23282;SDS011;11810;51.178;3.878;2022-11-20T02:44:52;131.73;;;48.20;;
23282;SDS011;11810;51.178;3.878;2022-11-20T02:47:18;130.75;;;49.92;;
23282;SDS011;11810;51.178;3.878;2022-11-20T02:49:43;139.18;;;49.83;;
23282;SDS011;11810;51.178;3.878;2022-11-20T02:52:09;149.38;;;50.47;;
23282;SDS011;11810;51.178;3.878;2022-11-20T02:54:35;137.77;;;50.75;;
23282;SDS011;11810;51.178;3.878;2022-11-20T02:57:01;142.57;;;50.33;;
23282;SDS011;11810;51.178;3.878;2022-11-20T02:59:27;127.18;;;47.38;;
23282;SDS011;11810;51.178;3.878;2022-11-20T03:01:53;121.45;;;45.28;;
23282;SDS011;11810;51.178;3.878;2022-11-20T03:04:30;120.63;;;45.00;;
23282;SDS011;11810;51.178;3.878;2022-11-20T03:08:31;114.60;;;45.22;;
23282;SDS011;11810;51.178;3.878;2022-11-20T03:11:01;118.93;;;44.35;;
23282;SDS011;11810;51.178;3.878;2022-11-20T03:13:31;117.05;;;44.38;;
23282;SDS011;11810;51.178;3.878;2022-11-20T03:15:57;117.30;;;44.60;;
23282;SDS011;11810;51.178;3.878;2022-11-20T03:18:23;119.63;;;44.25;;
23282;SDS011;11810;51.178;3.878;2022-11-20T03:20:49;122.50;;;45.15;;
23282;SDS011;11810;51.178;3.878;2022-11-20T03:23:15;119.38;;;45.72;;
23282;SDS011;11810;51.178;3.878;2022-11-20T03:25:41;114.43;;;43.03;;
23282;SDS011;11810;51.178;3.878;2022-11-20T03:28:07;117.38;;;45.33;;
23282;SDS011;11810;51.178;3.878;2022-11-20T03:30:32;120.78;;;46.97;;
23282;SDS011;11810;51.178;3.878;2022-11-20T03:32:59;116.50;;;45.30;;
23282;SDS011;11810;51.178;3.878;2022-11-20T03:35:25;116.07;;;44.38;;
23282;SDS011;11810;51.178;3.878;2022-11-20T03:37:51;125.95;;;43.78;;
23282;SDS011;11810;51.178;3.878;2022-11-20T03:40:17;107.88;;;42.65;;
23282;SDS011;11810;51.178;3.878;2022-11-20T03:42:43;150.55;;;48.17;;
23282;SDS011;11810;51.178;3.878;2022-11-20T03:45:15;109.82;;;44.53;;
23282;SDS011;11810;51.178;3.878;2022-11-20T03:47:43;108.10;;;43.53;;
23282;SDS011;11810;51.178;3.878;2022-11-20T03:50:10;111.03;;;41.60;;
23282;SDS011;11810;51.178;3.878;2022-11-20T03:52:38;119.65;;;44.60;;
23282;SDS011;11810;51.178;3.878;2022-11-20T03:55:05;124.38;;;44.58;;
23282;SDS011;11810;51.178;3.878;2022-11-20T03:57:32;116.82;;;44.58;;
23282;SDS011;11810;51.178;3.878;2022-11-20T03:59:58;123.47;;;43.08;;
23282;SDS011;11810;51.178;3.878;2022-11-20T04:03:42;127.72;;;46.10;;
23282;SDS011;11810;51.178;3.878;2022-11-20T04:08:44;124.43;;;44.83;;
23282;SDS011;11810;51.178;3.878;2022-11-20T04:11:29;144.68;;;47.33;;
23282;SDS011;11810;51.178;3.878;2022-11-20T04:14:00;123.78;;;45.72;;
23282;SDS011;11810;51.178;3.878;2022-11-20T04:16:32;125.97;;;47.80;;
23282;SDS011;11810;51.178;3.878;2022-11-20T04:19:00;121.78;;;45.95;;
23282;SDS011;11810;51.178;3.878;2022-11-20T04:21:28;118.50;;;46.65;;
23282;SDS011;11810;51.178;3.878;2022-11-20T04:23:54;126.35;;;47.80;;
23282;SDS011;11810;51.178;3.878;2022-11-20T04:26:21;124.70;;;48.33;;
23282;SDS011;11810;51.178;3.878;2022-11-20T04:28:49;118.07;;;46.38;;
23282;SDS011;11810;51.178;3.878;2022-11-20T04:31:19;126.30;;;46.90;;
23282;SDS011;11810;51.178;3.878;2022-11-20T04:34:42;112.72;;;43.53;;
23282;SDS011;11810;51.178;3.878;2022-11-20T04:37:08;115.97;;;44.10;;
23282;SDS011;11810;51.178;3.878;2022-11-20T04:39:34;122.05;;;44.95;;
23282;SDS011;11810;51.178;3.878;2022-11-20T04:41:59;120.65;;;45.25;;
23282;SDS011;11810;51.178;3.878;2022-11-20T04:44:44;138.32;;;48.08;;
23282;SDS011;11810;51.178;3.878;2022-11-20T04:47:10;118.03;;;45.60;;
23282;SDS011;11810;51.178;3.878;2022-11-20T04:49:36;129.23;;;47.28;;
23282;SDS011;11810;51.178;3.878;2022-11-20T04:52:02;120.35;;;46.55;;
23282;SDS011;11810;51.178;3.878;2022-11-20T04:54:28;123.10;;;48.08;;
23282;SDS011;11810;51.178;3.878;2022-11-20T04:56:53;118.45;;;47.00;;
23282;SDS011;11810;51.178;3.878;2022-11-20T04:59:19;122.43;;;44.35;;
23282;SDS011;11810;51.178;3.878;2022-11-20T05:01:45;120.30;;;46.67;;
23282;SDS011;11810;51.178;3.878;2022-11-20T05:04:11;125.00;;;46.85;;
23282;SDS011;11810;51.178;3.878;2022-11-20T05:08:46;123.25;;;47.35;;
23282;SDS011;11810;51.178;3.878;2022-11-20T05:11:13;123.57;;;46.65;;
23282;SDS011;11810;51.178;3.878;2022-11-20T05:13:41;131.95;;;46.88;;
23282;SDS011;11810;51.178;3.878;2022-11-20T05:16:17;136.23;;;46.97;;
23282;SDS011;11810;51.178;3.878;2022-11-20T05:18:44;127.47;;;45.28;;
23282;SDS011;11810;51.178;3.878;2022-11-20T05:21:10;136.43;;;49.15;;
23282;SDS011;11810;51.178;3.878;2022-11-20T05:23:47;123.78;;;47.33;;
23282;SDS011;11810;51.178;3.878;2022-11-20T05:26:14;136.80;;;49.70;;
23282;SDS011;11810;51.178;3.878;2022-11-20T05:28:44;146.05;;;49.75;;
23282;SDS011;11810;51.178;3.878;2022-11-20T05:31:15;134.55;;;47.83;;
23282;SDS011;11810;51.178;3.878;2022-11-20T05:33:43;151.10;;;49.85;;
23282;SDS011;11810;51.178;3.878;2022-11-20T05:36:10;134.13;;;48.40;;
23282;SDS011;11810;51.178;3.878;2022-11-20T05:39:49;118.43;;;44.83;;
23282;SDS011;11810;51.178;3.878;2022-11-20T05:42:15;119.65;;;45.00;;
23282;SDS011;11810;51.178;3.878;2022-11-20T05:44:57;145.18;;;47.78;;
23282;SDS011;11810;51.178;3.878;2022-11-20T05:47:27;121.70;;;46.80;;
23282;SDS011;11810;51.178;3.878;2022-11-20T05:49:56;133.23;;;47.60;;
23282;SDS011;11810;51.178;3.878;2022-11-20T05:52:21;132.20;;;49.03;;
23282;SDS011;11810;51.178;3.878;2022-11-20T05:54:47;134.05;;;47.03;;
23282;SDS011;11810;51.178;3.878;2022-11-20T05:57:13;140.73;;;48.33;;
23282;SDS011;11810;51.178;3.878;2022-11-20T05:59:39;126.50;;;47.00;;
23282;SDS011;11810;51.178;3.878;2022-11-20T06:02:05;114.72;;;45.38;;
23282;SDS011;11810;51.178;3.878;2022-11-20T06:04:31;127.13;;;48.67;;
23282;SDS011;11810;51.178;3.878;2022-11-20T06:06:57;134.00;;;48.40;;
23282;SDS011;11810;51.178;3.878;2022-11-20T06:09:23;127.18;;;48.80;;
23282;SDS011;11810;51.178;3.878;2022-11-20T06:11:49;127.35;;;49.90;;
23282;SDS011;11810;51.178;3.878;2022-11-20T06:14:15;139.43;;;50.08;;
23282;SDS011;11810;51.178;3.878;2022-11-20T06:16:41;140.73;;;51.67;;
23282;SDS011;11810;51.178;3.878;2022-11-20T06:19:07;132.93;;;47.85;;
23282;SDS011;11810;51.178;3.878;2022-11-20T06:21:33;126.90;;;48.65;;
23282;SDS011;11810;51.178;3.878;2022-11-20T06:23:58;132.23;;;48.92;;
23282;SDS011;11810;51.178;3.878;2022-11-20T06:26:25;138.73;;;48.17;;
23282;SDS011;11810;51.178;3.878;2022-11-20T06:28:52;128.18;;;48.60;;
23282;SDS011;11810;51.178;3.878;2022-11-20T06:31:21;149.55;;;49.85;;
23282;SDS011;11810;51.178;3.878;2022-11-20T06:33:49;126.93;;;46.55;;
23282;SDS011;11810;51.178;3.878;2022-11-20T06:36:16;138.65;;;49.03;;
23282;SDS011;11810;51.178;3.878;2022-11-20T06:38:43;152.95;;;52.33;;
23282;SDS011;11810;51.178;3.878;2022-11-20T06:41:14;142.30;;;51.42;;
23282;SDS011;11810;51.178;3.878;2022-11-20T06:43:41;139.05;;;48.80;;
23282;SDS011;11810;51.178;3.878;2022-11-20T06:46:09;142.07;;;48.45;;
23282;SDS011;11810;51.178;3.878;2022-11-20T06:48:36;154.70;;;49.78;;
23282;SDS011;11810;51.178;3.878;2022-11-20T06:53:02;147.77;;;50.10;;
23282;SDS011;11810;51.178;3.878;2022-11-20T06:55:30;147.25;;;48.10;;
23282;SDS011;11810;51.178;3.878;2022-11-20T07:00:00;135.60;;;46.70;;
23282;SDS011;11810;51.178;3.878;2022-11-20T07:02:26;155.40;;;50.13;;
23282;SDS011;11810;51.178;3.878;2022-11-20T07:04:52;161.07;;;49.47;;
23282;SDS011;11810;51.178;3.878;2022-11-20T07:07:18;151.27;;;51.92;;
23282;SDS011;11810;51.178;3.878;2022-11-20T07:09:44;152.15;;;49.05;;
23282;SDS011;11810;51.178;3.878;2022-11-20T07:12:10;151.40;;;50.50;;
23282;SDS011;11810;51.178;3.878;2022-11-20T07:14:36;149.95;;;50.58;;
23282;SDS011;11810;51.178;3.878;2022-11-20T07:17:02;169.68;;;51.78;;
23282;SDS011;11810;51.178;3.878;2022-11-20T07:19:28;178.20;;;52.03;;
23282;SDS011;11810;51.178;3.878;2022-11-20T07:21:53;171.70;;;51.67;;
23282;SDS011;11810;51.178;3.878;2022-11-20T07:24:19;162.18;;;51.28;;
23282;SDS011;11810;51.178;3.878;2022-11-20T07:26:46;169.90;;;50.55;;
23282;SDS011;11810;51.178;3.878;2022-11-20T07:29:14;200.13;;;54.17;;
23282;SDS011;11810;51.178;3.878;2022-11-20T07:31:41;154.00;;;52.65;;
23282;SDS011;11810;51.178;3.878;2022-11-20T07:34:08;153.10;;;52.05;;
23282;SDS011;11810;51.178;3.878;2022-11-20T07:36:34;180.82;;;53.42;;
23282;SDS011;11810;51.178;3.878;2022-11-20T07:39:00;158.50;;;51.45;;
23282;SDS011;11810;51.178;3.878;2022-11-20T07:41:26;180.93;;;54.08;;
23282;SDS011;11810;51.178;3.878;2022-11-20T07:43:52;160.27;;;53.00;;
23282;SDS011;11810;51.178;3.878;2022-11-20T07:46:18;169.75;;;51.17;;
23282;SDS011;11810;51.178;3.878;2022-11-20T07:48:44;184.20;;;54.10;;
23282;SDS011;11810;51.178;3.878;2022-11-20T07:52:15;169.57;;;54.92;;
23282;SDS011;11810;51.178;3.878;2022-11-20T07:54:41;168.25;;;53.08;;
23282;SDS011;11810;51.178;3.878;2022-11-20T07:57:07;173.13;;;54.70;;
23282;SDS011;11810;51.178;3.878;2022-11-20T07:59:33;196.18;;;54.40;;
23282;SDS011;11810;51.178;3.878;2022-11-20T08:01:59;168.77;;;52.10;;
23282;SDS011;11810;51.178;3.878;2022-11-20T08:04:25;186.60;;;54.13;;
23282;SDS011;11810;51.178;3.878;2022-11-20T08:06:53;217.45;;;59.47;;
23282;SDS011;11810;51.178;3.878;2022-11-20T08:10:12;163.38;;;54.63;;
23282;SDS011;11810;51.178;3.878;2022-11-20T08:12:50;273.63;;;112.97;;
23282;SDS011;11810;51.178;3.878;2022-11-20T08:15:36;282.65;;;110.47;;
23282;SDS011;11810;51.178;3.878;2022-11-20T08:18:08;435.73;;;175.32;;
23282;SDS011;11810;51.178;3.878;2022-11-20T08:20:37;522.00;;;220.88;;
23282;SDS011;11810;51.178;3.878;2022-11-20T08:23:04;445.10;;;196.98;;
23282;SDS011;11810;51.178;3.878;2022-11-20T08:25:32;283.52;;;126.03;;
23282;SDS011;11810;51.178;3.878;2022-11-20T08:28:00;202.93;;;73.38;;
23282;SDS011;11810;51.178;3.878;2022-11-20T08:30:28;199.13;;;75.30;;
23282;SDS011;11810;51.178;3.878;2022-11-20T08:32:54;206.90;;;64.85;;
23282;SDS011;11810;51.178;3.878;2022-11-20T08:35:20;181.05;;;57.03;;
23282;SDS011;11810;51.178;3.878;2022-11-20T08:37:47;184.50;;;67.72;;
23282;SDS011;11810;51.178;3.878;2022-11-20T08:40:13;223.35;;;101.63;;
23282;SDS011;11810;51.178;3.878;2022-11-20T08:42:49;318.63;;;139.30;;
23282;SDS011;11810;51.178;3.878;2022-11-20T08:45:16;364.77;;;148.68;;
23282;SDS011;11810;51.178;3.878;2022-11-20T08:47:43;238.30;;;90.78;;
23282;SDS011;11810;51.178;3.878;2022-11-20T08:50:10;231.10;;;77.68;;
23282;SDS011;11810;51.178;3.878;2022-11-20T08:52:38;208.32;;;82.72;;
23282;SDS011;11810;51.178;3.878;2022-11-20T08:55:04;191.82;;;69.80;;
23282;SDS011;11810;51.178;3.878;2022-11-20T08:57:32;172.75;;;53.80;;
23282;SDS011;11810;51.178;3.878;2022-11-20T08:59:58;163.80;;;53.25;;
23282;SDS011;11810;51.178;3.878;2022-11-20T09:02:24;164.80;;;53.53;;
23282;SDS011;11810;51.178;3.878;2022-11-20T09:04:50;165.88;;;52.63;;
23282;SDS011;11810;51.178;3.878;2022-11-20T09:07:16;151.32;;;50.25;;
23282;SDS011;11810;51.178;3.878;2022-11-20T09:09:42;159.80;;;48.63;;
23282;SDS011;11810;51.178;3.878;2022-11-20T09:12:08;153.90;;;52.08;;
23282;SDS011;11810;51.178;3.878;2022-11-20T09:14:34;458.80;;;182.60;;
23282;SDS011;11810;51.178;3.878;2022-11-20T09:17:00;350.63;;;127.03;;
23282;SDS011;11810;51.178;3.878;2022-11-20T09:19:26;344.00;;;129.52;;
23282;SDS011;11810;51.178;3.878;2022-11-20T09:21:52;588.28;;;239.35;;
23282;SDS011;11810;51.178;3.878;2022-11-20T09:24:19;408.83;;;158.23;;
23282;SDS011;11810;51.178;3.878;2022-11-20T09:26:46;445.40;;;178.60;;
23282;SDS011;11810;51.178;3.878;2022-11-20T09:29:12;514.05;;;236.50;;
23282;SDS011;11810;51.178;3.878;2022-11-20T09:31:38;331.40;;;128.35;;
23282;SDS011;11810;51.178;3.878;2022-11-20T09:34:04;267.25;;;111.07;;
23282;SDS011;11810;51.178;3.878;2022-11-20T09:36:30;255.50;;;100.55;;
23282;SDS011;11810;51.178;3.878;2022-11-20T09:38:56;185.07;;;67.97;;
23282;SDS011;11810;51.178;3.878;2022-11-20T09:44:24;140.02;;;52.15;;
23282;SDS011;11810;51.178;3.878;2022-11-20T09:47:12;129.55;;;43.75;;
23282;SDS011;11810;51.178;3.878;2022-11-20T09:49:54;129.00;;;46.47;;
23282;SDS011;11810;51.178;3.878;2022-11-20T09:52:39;135.48;;;47.17;;
23282;SDS011;11810;51.178;3.878;2022-11-20T09:55:19;128.70;;;47.45;;
23282;SDS011;11810;51.178;3.878;2022-11-20T09:57:46;117.35;;;44.00;;
23282;SDS011;11810;51.178;3.878;2022-11-20T10:00:16;112.68;;;46.10;;
23282;SDS011;11810;51.178;3.878;2022-11-20T10:08:07;220.38;;;99.30;;
23282;SDS011;11810;51.178;3.878;2022-11-20T10:11:00;250.27;;;109.55;;
23282;SDS011;11810;51.178;3.878;2022-11-20T10:13:45;192.48;;;86.30;;
23282;SDS011;11810;51.178;3.878;2022-11-20T10:21:41;125.60;;;58.05;;
23282;SDS011;11810;51.178;3.878;2022-11-20T10:24:37;104.28;;;42.70;;
23282;SDS011;11810;51.178;3.878;2022-11-20T10:30:12;91.18;;;37.08;;
23282;SDS011;11810;51.178;3.878;2022-11-20T10:32:40;74.60;;;33.60;;
23282;SDS011;11810;51.178;3.878;2022-11-20T10:37:50;78.15;;;31.98;;
23282;SDS011;11810;51.178;3.878;2022-11-20T10:42:55;79.55;;;32.45;;
23282;SDS011;11810;51.178;3.878;2022-11-20T10:47:51;69.70;;;29.00;;
23282;SDS011;11810;51.178;3.878;2022-11-20T10:50:20;64.13;;;28.88;;
23282;SDS011;11810;51.178;3.878;2022-11-20T10:55:43;180.63;;;88.70;;
23282;SDS011;11810;51.178;3.878;2022-11-20T11:01:18;126.28;;;60.78;;
23282;SDS011;11810;51.178;3.878;2022-11-20T11:03:48;88.78;;;48.50;;
23282;SDS011;11810;51.178;3.878;2022-11-20T11:08:53;136.10;;;76.13;;
23282;SDS011;11810;51.178;3.878;2022-11-20T11:11:30;94.72;;;56.47;;
23282;SDS011;11810;51.178;3.878;2022-11-20T11:16:34;76.70;;;45.63;;
23282;SDS011;11810;51.178;3.878;2022-11-20T11:19:11;59.22;;;34.20;;
23282;SDS011;11810;51.178;3.878;2022-11-20T11:21:38;49.33;;;30.25;;
23282;SDS011;11810;51.178;3.878;2022-11-20T11:24:25;59.67;;;41.33;;
23282;SDS011;11810;51.178;3.878;2022-11-20T11:26:59;49.65;;;26.83;;
23282;SDS011;11810;51.178;3.878;2022-11-20T11:29:32;38.60;;;20.27;;
23282;SDS011;11810;51.178;3.878;2022-11-20T11:32:08;30.77;;;17.77;;
23282;SDS011;11810;51.178;3.878;2022-11-20T11:34:39;31.92;;;17.00;;
23282;SDS011;11810;51.178;3.878;2022-11-20T11:37:05;30.08;;;15.48;;
23282;SDS011;11810;51.178;3.878;2022-11-20T11:39:40;29.10;;;15.35;;
23282;SDS011;11810;51.178;3.878;2022-11-20T11:42:10;24.60;;;13.30;;
23282;SDS011;11810;51.178;3.878;2022-11-20T11:44:45;22.07;;;11.00;;
23282;SDS011;11810;51.178;3.878;2022-11-20T11:47:31;20.15;;;11.38;;
23282;SDS011;11810;51.178;3.878;2022-11-20T11:58:28;13.05;;;7.43;;
23282;SDS011;11810;51.178;3.878;2022-11-20T12:01:31;14.65;;;7.47;;
23282;SDS011;11810;51.178;3.878;2022-11-20T12:07:54;19.13;;;6.32;;
23282;SDS011;11810;51.178;3.878;2022-11-20T12:10:08;11.07;;;6.93;;
23282;SDS011;11810;51.178;3.878;2022-11-20T12:12:44;14.75;;;8.05;;
23282;SDS011;11810;51.178;3.878;2022-11-20T12:15:35;62.80;;;15.48;;
23282;SDS011;11810;51.178;3.878;2022-11-20T12:18:06;35.50;;;18.55;;
23282;SDS011;11810;51.178;3.878;2022-11-20T12:20:40;29.20;;;16.05;;
23282;SDS011;11810;51.178;3.878;2022-11-20T12:26:05;34.05;;;16.20;;
23282;SDS011;11810;51.178;3.878;2022-11-20T12:40:40;48.20;;;25.08;;
23282;SDS011;11810;51.178;3.878;2022-11-20T12:43:20;60.47;;;30.35;;
23282;SDS011;11810;51.178;3.878;2022-11-20T13:00:32;51.00;;;27.77;;
23282;SDS011;11810;51.178;3.878;2022-11-20T13:08:03;27.02;;;17.63;;
23282;SDS011;11810;51.178;3.878;2022-11-20T13:10:47;15.35;;;8.77;;
23282;SDS011;11810;51.178;3.878;2022-11-20T13:13:36;17.50;;;9.30;;
23282;SDS011;11810;51.178;3.878;2022-11-20T13:17:12;25.77;;;14.98;;
23282;SDS011;11810;51.178;3.878;2022-11-20T13:19:12;22.10;;;16.42;;
23282;SDS011;11810;51.178;3.878;2022-11-20T13:21:41;22.27;;;17.00;;
23282;SDS011;11810;51.178;3.878;2022-11-20T13:29:38;26.60;;;15.45;;
23282;SDS011;11810;51.178;3.878;2022-11-20T13:32:18;21.65;;;13.75;;
23282;SDS011;11810;51.178;3.878;2022-11-20T13:37:40;16.15;;;11.70;;
23282;SDS011;11810;51.178;3.878;2022-11-20T13:42:53;11.38;;;7.70;;
23282;SDS011;11810;51.178;3.878;2022-11-20T13:47:50;10.57;;;6.47;;
23282;SDS011;11810;51.178;3.878;2022-11-20T13:50:17;9.07;;;7.72;;
23282;SDS011;11810;51.178;3.878;2022-11-20T13:55:50;8.68;;;6.40;;
23282;SDS011;11810;51.178;3.878;2022-11-20T13:58:28;12.05;;;5.47;;
23282;SDS011;11810;51.178;3.878;2022-11-20T14:01:00;10.80;;;6.00;;
23282;SDS011;11810;51.178;3.878;2022-11-20T14:03:34;10.82;;;6.88;;
23282;SDS011;11810;51.178;3.878;2022-11-20T14:06:01;73.50;;;40.50;;
23282;SDS011;11810;51.178;3.878;2022-11-20T14:11:31;9.88;;;6.80;;
23282;SDS011;11810;51.178;3.878;2022-11-20T14:17:08;25.00;;;16.92;;
23282;SDS011;11810;51.178;3.878;2022-11-20T14:19:43;9.73;;;7.07;;
23282;SDS011;11810;51.178;3.878;2022-11-20T14:24:39;10.10;;;7.38;;
23282;SDS011;11810;51.178;3.878;2022-11-20T14:27:11;10.40;;;7.53;;
23282;SDS011;11810;51.178;3.878;2022-11-20T14:29:43;11.80;;;7.80;;
23282;SDS011;11810;51.178;3.878;2022-11-20T14:32:11;9.52;;;7.30;;
23282;SDS011;11810;51.178;3.878;2022-11-20T14:34:44;14.05;;;7.97;;
23282;SDS011;11810;51.178;3.878;2022-11-20T14:37:13;7.65;;;6.45;;
23282;SDS011;11810;51.178;3.878;2022-11-20T14:39:49;9.75;;;6.97;;
23282;SDS011;11810;51.178;3.878;2022-11-20T14:42:21;12.40;;;10.00;;
23282;SDS011;11810;51.178;3.878;2022-11-20T14:44:49;11.45;;;7.72;;
23282;SDS011;11810;51.178;3.878;2022-11-20T14:47:20;12.27;;;8.80;;
23282;SDS011;11810;51.178;3.878;2022-11-20T14:49:48;15.32;;;8.82;;
23282;SDS011;11810;51.178;3.878;2022-11-20T14:52:20;10.73;;;8.50;;
23282;SDS011;11810;51.178;3.878;2022-11-20T14:54:48;14.90;;;10.73;;
23282;SDS011;11810;51.178;3.878;2022-11-20T14:57:32;12.88;;;10.63;;
23282;SDS011;11810;51.178;3.878;2022-11-20T15:02:47;21.35;;;14.10;;
23282;SDS011;11810;51.178;3.878;2022-11-20T15:05:14;42.67;;;17.77;;
23282;SDS011;11810;51.178;3.878;2022-11-20T15:07:43;43.28;;;20.83;;
23282;SDS011;11810;51.178;3.878;2022-11-20T15:12:38;70.40;;;31.65;;
23282;SDS011;11810;51.178;3.878;2022-11-20T15:15:28;103.18;;;44.67;;
23282;SDS011;11810;51.178;3.878;2022-11-20T15:18:00;97.05;;;43.08;;
23282;SDS011;11810;51.178;3.878;2022-11-20T15:20:28;105.60;;;45.33;;
23282;SDS011;11810;51.178;3.878;2022-11-20T15:22:56;62.75;;;21.23;;
23282;SDS011;11810;51.178;3.878;2022-11-20T15:25:22;46.85;;;16.65;;
23282;SDS011;11810;51.178;3.878;2022-11-20T15:27:51;26.63;;;9.73;;
23282;SDS011;11810;51.178;3.878;2022-11-20T15:30:21;16.00;;;6.45;;
23282;SDS011;11810;51.178;3.878;2022-11-20T15:32:47;18.40;;;5.57;;
23282;SDS011;11810;51.178;3.878;2022-11-20T15:35:14;21.90;;;5.75;;
23282;SDS011;11810;51.178;3.878;2022-11-20T15:37:40;18.42;;;6.13;;
23282;SDS011;11810;51.178;3.878;2022-11-20T15:40:07;27.60;;;6.60;;
23282;SDS011;11810;51.178;3.878;2022-11-20T15:42:34;14.95;;;4.35;;
23282;SDS011;11810;51.178;3.878;2022-11-20T15:45:00;26.38;;;5.20;;
23282;SDS011;11810;51.178;3.878;2022-11-20T15:47:27;26.30;;;4.50;;
23282;SDS011;11810;51.178;3.878;2022-11-20T15:49:56;29.83;;;5.10;;
23282;SDS011;11810;51.178;3.878;2022-11-20T15:52:22;25.30;;;4.97;;
23282;SDS011;11810;51.178;3.878;2022-11-20T15:54:48;28.17;;;4.53;;
23282;SDS011;11810;51.178;3.878;2022-11-20T15:57:14;31.00;;;5.22;;
23282;SDS011;11810;51.178;3.878;2022-11-20T15:59:39;21.50;;;4.78;;
23282;SDS011;11810;51.178;3.878;2022-11-20T16:02:14;18.05;;;5.72;;
23282;SDS011;11810;51.178;3.878;2022-11-20T16:04:41;31.27;;;5.72;;
23282;SDS011;11810;51.178;3.878;2022-11-20T16:07:07;16.38;;;4.18;;
23282;SDS011;11810;51.178;3.878;2022-11-20T16:09:33;24.70;;;3.83;;
23282;SDS011;11810;51.178;3.878;2022-11-20T16:11:59;24.58;;;4.93;;
23282;SDS011;11810;51.178;3.878;2022-11-20T16:14:25;28.35;;;5.30;;
23282;SDS011;11810;51.178;3.878;2022-11-20T16:17:10;31.08;;;5.15;;
23282;SDS011;11810;51.178;3.878;2022-11-20T16:19:37;23.75;;;5.57;;
23282;SDS011;11810;51.178;3.878;2022-11-20T16:22:03;30.20;;;6.45;;
23282;SDS011;11810;51.178;3.878;2022-11-20T16:24:29;22.95;;;4.40;;
23282;SDS011;11810;51.178;3.878;2022-11-20T16:26:55;20.85;;;4.97;;
23282;SDS011;11810;51.178;3.878;2022-11-20T16:29:21;23.67;;;4.72;;
23282;SDS011;11810;51.178;3.878;2022-11-20T16:31:47;26.40;;;5.00;;
23282;SDS011;11810;51.178;3.878;2022-11-20T16:36:23;32.30;;;5.03;;
23282;SDS011;11810;51.178;3.878;2022-11-20T16:38:51;26.27;;;5.18;;
23282;SDS011;11810;51.178;3.878;2022-11-20T16:41:18;29.92;;;5.30;;
23282;SDS011;11810;51.178;3.878;2022-11-20T16:43:48;28.58;;;4.82;;
23282;SDS011;11810;51.178;3.878;2022-11-20T16:46:16;30.75;;;5.50;;
23282;SDS011;11810;51.178;3.878;2022-11-20T16:48:44;18.25;;;4.53;;
23282;SDS011;11810;51.178;3.878;2022-11-20T16:51:16;31.63;;;4.60;;
23282;SDS011;11810;51.178;3.878;2022-11-20T16:53:42;17.95;;;3.70;;